createdAt,value
2019-02-24T00:02:20.056Z,102767.91
2019-02-24T00:04:52.666Z,102768.04
2019-02-24T00:07:24.915Z,102766.83
2019-02-24T00:09:57.314Z,102766.83
2019-02-24T00:12:30.360Z,102767.14
2019-02-24T00:15:02.896Z,102768.91
2019-02-24T00:17:34.921Z,102766.95
2019-02-24T00:20:07.094Z,102769.27
2019-02-24T00:22:39.327Z,102774.47
2019-02-24T00:25:11.917Z,102774.70
2019-02-24T00:27:44.855Z,102769.39
2019-02-24T00:30:17.566Z,102765.64
2019-02-24T00:32:49.859Z,102767.91
2019-02-24T00:35:21.973Z,102762.48
2019-02-24T00:37:54.405Z,102764.98
2019-02-24T00:40:27.317Z,102766.59
2019-02-24T00:42:59.913Z,102766.93
2019-02-24T00:45:32.118Z,102760.52
2019-02-24T00:48:04.980Z,102754.78
2019-02-24T00:50:37.675Z,102754.38
2019-02-24T00:53:09.832Z,102754.82
2019-02-24T00:55:42.477Z,102754.82
2019-02-24T00:58:16.349Z,102747.12
2019-02-24T01:00:48.927Z,102742.06
2019-02-24T01:03:21.164Z,102742.06
2019-02-24T01:05:53.853Z,102747.67
2019-02-24T01:08:26.112Z,102744.96
2019-02-24T01:10:58.474Z,102751.03
2019-02-24T01:13:30.861Z,102743.48
2019-02-24T01:16:02.954Z,102743.17
2019-02-24T01:18:35.396Z,102739.47
2019-02-24T01:21:07.904Z,102740.95
2019-02-24T01:23:40.336Z,102742.62
2019-02-24T01:26:14.064Z,102738.64
2019-02-24T01:28:46.311Z,102735.84
2019-02-24T01:31:19.028Z,102740.77
2019-02-24T01:33:51.324Z,102745.33
2019-02-24T01:36:23.914Z,102744.28
2019-02-24T01:38:56.088Z,102746.88
2019-02-24T01:41:28.878Z,102741.63
2019-02-24T01:44:01.016Z,102743.61
2019-02-24T01:46:33.334Z,102750.97
2019-02-24T01:49:05.894Z,102743.98
2019-02-24T01:51:37.893Z,102749.92
2019-02-24T01:54:09.905Z,102747.43
2019-02-24T01:56:42.906Z,102750.20
2019-02-24T01:59:14.919Z,102750.20
2019-02-24T02:01:47.073Z,102746.50
2019-02-24T02:04:19.853Z,102744.25
2019-02-24T02:06:52.916Z,102735.94
2019-02-24T02:09:24.853Z,102728.56
2019-02-24T02:11:57.431Z,102731.98
2019-02-24T02:14:29.870Z,102723.52
2019-02-24T02:17:01.894Z,102724.14
2019-02-24T02:19:34.062Z,102735.47
2019-02-24T02:22:06.574Z,102735.66
2019-02-24T02:24:39.319Z,102740.00
2019-02-24T02:27:12.012Z,102740.00
2019-02-24T02:29:44.325Z,102738.19
2019-02-24T02:32:16.861Z,102736.46
2019-02-24T02:34:49.296Z,102728.88
2019-02-24T02:37:21.902Z,102734.15
2019-02-24T02:39:54.026Z,102727.63
2019-02-24T02:42:26.860Z,102722.97
2019-02-24T02:44:59.588Z,102726.97
2019-02-24T02:47:31.708Z,102725.55
2019-02-24T02:50:02.724Z,102717.91
2019-02-24T02:52:33.983Z,102713.57
2019-02-24T02:55:06.915Z,102698.94
2019-02-24T02:57:38.890Z,102695.60
2019-02-24T03:00:36.344Z,102702.66
2019-02-24T03:03:08.895Z,102704.81
2019-02-24T03:05:44.550Z,102697.80
2019-02-24T03:08:17.331Z,102701.16
2019-02-24T03:10:50.337Z,102704.55
2019-02-24T03:13:22.912Z,102716.47
2019-02-24T03:15:54.947Z,102706.48
2019-02-24T03:18:26.923Z,102699.48
2019-02-24T03:20:59.339Z,102714.89
2019-02-24T03:23:31.840Z,102726.81
2019-02-24T03:26:03.929Z,102733.75
2019-02-24T03:28:36.346Z,102737.08
2019-02-24T03:31:08.973Z,102740.03
2019-02-24T03:33:44.750Z,102740.19
2019-02-24T03:36:16.121Z,102746.96
2019-02-24T03:38:48.886Z,102750.10
2019-02-24T03:41:20.948Z,102735.97
2019-02-24T03:43:53.891Z,102733.25
2019-02-24T03:46:26.895Z,102746.59
2019-02-24T03:48:59.550Z,102737.38
2019-02-24T03:51:31.904Z,102733.25
2019-02-24T03:54:04.065Z,102736.13
2019-02-24T03:56:36.327Z,102729.74
2019-02-24T03:59:15.165Z,102720.53
2019-02-24T04:01:43.335Z,102734.39
2019-02-24T04:04:15.874Z,102734.39
2019-02-24T04:06:49.041Z,102734.21
2019-02-24T04:09:21.345Z,102731.91
2019-02-24T04:11:53.924Z,102732.11
2019-02-24T04:14:26.349Z,102723.00
2019-02-24T04:16:58.855Z,102720.26
2019-02-24T04:19:31.882Z,102719.86
2019-02-24T04:22:03.911Z,102709.29
2019-02-24T04:24:36.362Z,102712.13
2019-02-24T04:27:08.872Z,102706.92
2019-02-24T04:29:40.909Z,102706.67
2019-02-24T04:32:13.396Z,102707.50
2019-02-24T04:34:45.855Z,102708.80
2019-02-24T04:37:18.455Z,102716.25
2019-02-24T04:39:50.896Z,102727.44
2019-02-24T04:42:22.872Z,102727.67
2019-02-24T04:44:55.631Z,102719.73
2019-02-24T04:47:27.800Z,102688.81
2019-02-24T04:49:59.929Z,102688.81
2019-02-24T04:52:32.101Z,102699.84
2019-02-24T04:55:04.385Z,102696.97
2019-02-24T04:57:37.091Z,102704.52
2019-02-24T05:00:10.337Z,102705.41
2019-02-24T05:02:42.907Z,102704.64
2019-02-24T05:05:14.854Z,102700.05
2019-02-24T05:07:46.938Z,102692.44
2019-02-24T05:10:19.060Z,102699.62
2019-02-24T05:12:51.330Z,102695.37
2019-02-24T05:15:23.894Z,102696.50
2019-02-24T05:17:56.080Z,102687.86
2019-02-24T05:20:28.354Z,102682.52
2019-02-24T05:23:00.881Z,102674.89
2019-02-24T05:25:33.359Z,102673.66
2019-02-24T05:28:05.915Z,102668.75
2019-02-24T05:30:37.919Z,102676.76
2019-02-24T05:33:09.843Z,102663.97
2019-02-24T05:35:41.896Z,102667.98
2019-02-24T05:38:14.336Z,102661.38
2019-02-24T05:40:46.893Z,102660.01
2019-02-24T05:43:18.890Z,102654.94
2019-02-24T05:45:51.364Z,102661.09
2019-02-24T05:48:24.101Z,102657.57
2019-02-24T05:50:56.361Z,102659.42
2019-02-24T05:53:28.887Z,102661.71
2019-02-24T05:56:01.329Z,102645.59
2019-02-24T05:58:33.832Z,102640.17
2019-02-24T06:01:05.992Z,102640.66
2019-02-24T06:03:38.902Z,102638.70
2019-02-24T06:06:11.117Z,102652.55
2019-02-24T06:08:44.011Z,102651.78
2019-02-24T06:11:16.568Z,102649.62
2019-02-24T06:13:48.931Z,102651.98
2019-02-24T06:16:21.507Z,102651.98
2019-02-24T06:18:54.330Z,102646.66
2019-02-24T06:21:26.845Z,102646.08
2019-02-24T06:23:59.340Z,102644.47
2019-02-24T06:26:31.791Z,102649.91
2019-02-24T06:29:03.844Z,102653.10
2019-02-24T06:31:35.904Z,102652.48
2019-02-24T06:34:08.333Z,102648.86
2019-02-24T06:36:40.838Z,102649.59
2019-02-24T06:39:13.882Z,102648.78
2019-02-24T06:41:45.905Z,102655.91
2019-02-24T06:44:18.269Z,102650.37
2019-02-24T06:46:50.877Z,102651.45
2019-02-24T06:49:23.345Z,102656.44
2019-02-24T06:51:55.896Z,102669.70
2019-02-24T06:54:28.464Z,102673.87
2019-02-24T06:57:01.285Z,102671.17
2019-02-24T06:59:33.815Z,102671.17
2019-02-24T07:02:06.413Z,102685.68
2019-02-24T07:04:38.890Z,102690.89
2019-02-24T07:07:11.962Z,102686.31
2019-02-24T07:09:44.482Z,102690.03
2019-02-24T07:12:16.933Z,102684.31
2019-02-24T07:14:52.887Z,102689.30
2019-02-24T07:17:25.069Z,102688.63
2019-02-24T07:19:57.883Z,102697.92
2019-02-24T07:22:29.893Z,102696.03
2019-02-24T07:25:02.343Z,102692.15
2019-02-24T07:27:34.828Z,102689.43
2019-02-24T07:30:07.463Z,102692.24
2019-02-24T07:32:39.836Z,102688.22
2019-02-24T07:35:12.891Z,102682.33
2019-02-24T07:37:46.397Z,102677.64
2019-02-24T07:40:19.005Z,102673.56
2019-02-24T07:42:51.329Z,102672.11
2019-02-24T07:45:24.283Z,102671.98
2019-02-24T07:47:57.378Z,102673.51
2019-02-24T07:50:29.907Z,102677.34
2019-02-24T07:53:02.005Z,102678.58
2019-02-24T07:55:34.333Z,102681.36
2019-02-24T07:58:06.874Z,102682.72
2019-02-24T08:00:39.060Z,102678.50
2019-02-24T08:03:11.875Z,102692.57
2019-02-24T08:05:44.334Z,102691.82
2019-02-24T08:08:16.922Z,102683.45
2019-02-24T08:10:49.322Z,102689.38
2019-02-24T08:13:22.596Z,102684.60
2019-02-24T08:15:54.940Z,102677.48
2019-02-24T08:18:29.632Z,102677.48
2019-02-24T08:21:01.907Z,102658.55
2019-02-24T08:23:36.322Z,102658.55
2019-02-24T08:26:09.070Z,102678.97
2019-02-24T08:28:41.324Z,102675.30
2019-02-24T08:31:13.852Z,102680.20
2019-02-24T08:33:45.876Z,102679.80
2019-02-24T08:36:18.098Z,102681.45
2019-02-24T08:38:50.866Z,102683.67
2019-02-24T08:41:23.103Z,102683.51
2019-02-24T08:43:55.644Z,102683.47
2019-02-24T08:46:28.474Z,102685.27
2019-02-24T08:49:00.866Z,102685.27
2019-02-24T08:51:32.877Z,102691.84
2019-02-24T08:54:04.900Z,102694.41
2019-02-24T08:56:36.841Z,102690.29
2019-02-24T08:59:09.318Z,102688.74
2019-02-24T09:01:41.906Z,102690.06
2019-02-24T09:04:13.904Z,102696.36
2019-02-24T09:06:46.116Z,102699.30
2019-02-24T09:09:18.884Z,102711.59
2019-02-24T09:11:51.416Z,102727.12
2019-02-24T09:14:23.870Z,102729.20
2019-02-24T09:16:56.370Z,102741.55
2019-02-24T09:19:28.983Z,102747.19
2019-02-24T09:22:01.549Z,102745.70
2019-02-24T09:24:33.835Z,102748.23
2019-02-24T09:27:05.869Z,102748.23
2019-02-24T09:29:37.915Z,102747.74
2019-02-24T09:32:09.868Z,102746.29
2019-02-24T09:34:42.316Z,102749.05
2019-02-24T09:37:15.324Z,102745.80
2019-02-24T09:39:47.837Z,102747.52
2019-02-24T09:42:20.334Z,102744.64
2019-02-24T09:44:52.909Z,102757.40
2019-02-24T09:47:25.689Z,102755.73
2019-02-24T09:49:56.959Z,102756.20
2019-02-24T09:52:29.865Z,102747.16
2019-02-24T09:55:02.098Z,102757.77
2019-02-24T09:57:34.604Z,102753.98
2019-02-24T10:00:07.896Z,102733.55
2019-02-24T10:02:39.988Z,102733.55
2019-02-24T10:05:12.334Z,102732.66
2019-02-24T10:07:45.038Z,102730.59
2019-02-24T10:10:17.323Z,102725.60
2019-02-24T14:49:07.270Z,102636.30
2019-02-24T14:51:39.103Z,102636.19
2019-02-24T14:54:10.786Z,102633.14
2019-02-24T14:56:42.641Z,102630.45
2019-02-24T14:59:14.358Z,102634.91
2019-02-24T15:01:46.309Z,102634.91
2019-02-24T15:04:17.974Z,102633.44
2019-02-24T15:06:49.869Z,102629.98
2019-02-24T15:09:21.654Z,102626.56
2019-02-24T15:11:53.449Z,102627.51
2019-02-24T15:14:25.308Z,102627.51
2019-02-24T15:16:57.016Z,102635.30
2019-02-24T15:19:28.773Z,102621.80
2019-02-24T15:21:59.491Z,102627.64
2019-02-24T15:24:31.309Z,102627.25
2019-02-24T15:27:02.882Z,102623.78
2019-02-24T15:29:35.844Z,102623.44
2019-02-24T15:32:07.811Z,102620.72
2019-02-24T15:34:39.762Z,102618.27
2019-02-24T15:37:10.683Z,102621.21
2019-02-24T15:39:42.364Z,102613.56
2019-02-24T15:42:14.661Z,102608.20
2019-02-24T15:44:46.420Z,102608.34
2019-02-24T15:47:18.493Z,102608.34
2019-02-24T15:49:50.311Z,102614.55
2019-02-24T15:52:21.877Z,102614.55
2019-02-24T15:54:53.749Z,102610.58
2019-02-24T15:57:24.615Z,102610.54
2019-02-24T15:59:56.339Z,102612.98
2019-02-24T16:02:28.053Z,102612.98
2019-02-24T16:04:59.757Z,102618.09
2019-02-24T16:07:30.770Z,102610.69
2019-02-24T16:10:02.503Z,102610.44
2019-02-24T16:12:34.349Z,102615.88
2019-02-24T16:15:07.781Z,102626.85
2019-02-24T16:17:38.627Z,102623.02
2019-02-24T16:20:15.901Z,102607.56
2019-02-24T16:22:47.436Z,102607.56
2019-02-24T16:25:19.615Z,102611.74
2019-02-24T16:27:51.629Z,102604.83
2019-02-24T16:30:23.334Z,102604.44
2019-02-24T16:32:55.067Z,102604.44
2019-02-24T16:35:26.754Z,102608.15
2019-02-24T16:37:57.520Z,102611.73
2019-02-24T16:40:29.309Z,102610.63
2019-02-24T16:43:01.414Z,102613.45
2019-02-24T16:45:33.030Z,102615.27
2019-02-24T16:48:04.775Z,102616.11
2019-02-24T16:50:35.768Z,102614.77
2019-02-24T16:53:07.758Z,102609.01
2019-02-24T16:55:38.456Z,102605.44
2019-02-24T16:58:10.312Z,102608.42
2019-02-24T17:00:42.421Z,102607.25
2019-02-24T17:03:19.954Z,102610.98
2019-02-24T17:05:48.300Z,102611.44
2019-02-24T17:08:20.084Z,102617.02
2019-02-24T17:10:51.762Z,102613.05
2019-02-24T17:13:22.460Z,102611.55
2019-02-24T17:15:54.300Z,102616.63
2019-02-24T17:18:25.857Z,102620.45
2019-02-24T17:20:57.770Z,102628.47
2019-02-24T17:23:28.492Z,102638.25
2019-02-24T17:26:00.314Z,102636.02
2019-02-24T17:28:32.315Z,102638.63
2019-02-24T17:31:07.099Z,102639.50
2019-02-24T17:33:39.299Z,102642.82
2019-02-24T17:36:11.062Z,102644.79
2019-02-24T17:38:42.973Z,102642.46
2019-02-24T17:41:15.301Z,102645.78
2019-02-24T17:43:47.296Z,102639.84
2019-02-24T17:46:18.877Z,102651.47
2019-02-24T17:48:50.765Z,102652.82
2019-02-24T17:51:22.716Z,102654.19
2019-02-24T17:53:53.478Z,102661.19
2019-02-24T17:56:25.309Z,102650.30
2019-02-24T17:58:57.301Z,102653.41
2019-02-24T18:01:28.870Z,102656.48
2019-02-24T18:04:00.364Z,102657.53
2019-02-24T18:06:32.057Z,102654.38
2019-02-24T18:09:04.294Z,102655.25
2019-02-24T18:11:36.301Z,102656.36
2019-02-24T18:14:07.862Z,102657.95
2019-02-24T18:16:40.118Z,102658.94
2019-02-24T18:19:11.798Z,102662.78
2019-02-24T18:21:43.410Z,102653.64
2019-02-24T18:24:15.418Z,102648.07
2019-02-24T18:26:48.765Z,102651.16
2019-02-24T18:29:19.480Z,102642.87
2019-02-24T18:31:51.304Z,102646.21
2019-02-24T18:34:23.803Z,102647.69
2019-02-24T18:36:55.377Z,102641.36
2019-02-24T18:39:27.307Z,102637.67
2019-02-24T18:41:58.849Z,102632.70
2019-02-24T18:44:31.547Z,102632.55
2019-02-24T18:47:03.353Z,102616.67
2019-02-24T18:49:36.053Z,102616.67
2019-02-24T18:52:07.782Z,102631.12
2019-02-24T18:54:38.649Z,102636.89
2019-02-24T18:57:10.362Z,102615.36
2019-02-24T18:59:42.057Z,102615.36
2019-02-24T19:02:14.741Z,102626.72
2019-02-24T19:04:46.230Z,102629.18
2019-02-24T19:07:18.349Z,102629.61
2019-02-24T19:09:50.017Z,102631.58
2019-02-24T19:12:21.765Z,102629.34
2019-02-24T19:14:53.752Z,102626.47
2019-02-24T19:17:25.878Z,102631.66
2019-02-24T19:19:57.857Z,102633.37
2019-02-24T19:22:29.741Z,102635.11
2019-02-24T19:25:01.258Z,102632.39
2019-02-24T19:27:33.057Z,102633.64
2019-02-24T19:30:04.768Z,102633.03
2019-02-24T19:32:35.575Z,102635.27
2019-02-24T19:35:08.407Z,102628.95
2019-02-24T19:37:54.857Z,102628.95
2019-02-24T19:40:26.418Z,102628.56
2019-02-24T19:42:58.297Z,102628.45
2019-02-24T19:45:30.263Z,102628.70
2019-02-24T19:48:02.301Z,102641.20
2019-02-24T19:50:33.852Z,102637.62
2019-02-24T19:53:05.899Z,102633.39
2019-02-24T19:55:37.773Z,102637.97
2019-02-24T19:58:09.375Z,102644.00
2019-02-24T20:00:41.582Z,102645.34
2019-02-24T20:03:13.379Z,102656.29
2019-02-24T20:05:47.311Z,102656.29
2019-02-24T20:08:19.066Z,102658.52
2019-02-24T20:10:50.747Z,102646.83
2019-02-24T20:13:21.522Z,102656.48
2019-02-24T20:15:53.634Z,102657.95
2019-02-24T20:18:31.908Z,102647.61
2019-02-24T20:21:04.629Z,102647.61
2019-02-24T20:23:36.798Z,102666.55
2019-02-24T20:26:08.752Z,102666.55
2019-02-24T20:28:40.122Z,102662.45
2019-02-24T20:34:15.293Z,102659.75
2019-02-24T20:36:46.881Z,102657.37
2019-02-24T20:39:19.308Z,102664.79
2019-02-24T20:41:51.299Z,102666.03
2019-02-24T20:44:24.014Z,102656.11
2019-02-24T20:46:55.789Z,102660.32
2019-02-24T20:49:27.806Z,102662.40
2019-02-24T20:51:59.855Z,102656.27
2019-02-24T20:54:31.823Z,102653.30
2019-02-24T20:57:05.686Z,102644.13
2019-02-24T20:59:37.550Z,102649.30
2019-02-24T21:02:09.416Z,102621.97
2019-02-24T21:04:41.753Z,102621.97
2019-02-24T21:07:12.595Z,102649.79
2019-02-24T21:09:43.439Z,102647.94
2019-02-24T21:12:15.423Z,102654.37
2019-02-24T21:14:47.762Z,102651.86
2019-02-24T21:17:19.262Z,102636.79
2019-02-24T21:19:51.024Z,102642.46
2019-02-24T21:22:22.760Z,102639.48
2019-02-24T21:24:54.589Z,102652.31
2019-02-24T21:27:26.423Z,102653.41
2019-02-24T21:29:58.301Z,102649.34
2019-02-24T21:32:29.844Z,102658.66
2019-02-24T21:35:01.594Z,102657.95
2019-02-24T21:37:33.651Z,102653.63
2019-02-24T21:40:09.303Z,102660.28
2019-02-24T21:42:44.448Z,102660.28
2019-02-24T21:45:19.489Z,102652.63
2019-02-24T21:47:51.304Z,102652.12
2019-02-24T21:50:22.898Z,102657.33
2019-02-24T21:52:55.306Z,102662.76
2019-02-24T21:55:27.031Z,102648.66
2019-02-24T21:57:58.785Z,102656.41
2019-02-24T22:00:30.762Z,102660.52
2019-02-24T22:03:01.727Z,102654.55
2019-02-24T22:05:32.616Z,102652.84
2019-02-24T22:08:04.410Z,102643.91
2019-02-24T22:10:36.316Z,102643.91
2019-02-24T22:13:07.866Z,102656.25
2019-02-24T22:15:39.853Z,102653.93
2019-02-24T22:18:11.586Z,102661.16
2019-02-24T22:20:43.315Z,102649.38
2019-02-24T22:23:15.316Z,102649.38
2019-02-24T22:25:46.909Z,102667.75
2019-02-24T22:28:18.412Z,102670.73
2019-02-24T22:30:50.078Z,102667.32
2019-02-24T22:33:21.787Z,102661.86
2019-02-24T22:35:52.465Z,102665.89
2019-02-24T22:38:24.318Z,102656.55
2019-02-24T22:40:55.840Z,102661.63
2019-02-24T22:43:27.702Z,102667.81
2019-02-24T22:45:58.493Z,102671.89
2019-02-24T22:48:30.795Z,102674.97
2019-02-24T22:51:02.557Z,102682.84
2019-02-24T22:53:34.317Z,102688.05
2019-02-24T22:56:05.831Z,102684.73
2019-02-24T22:58:38.302Z,102692.48
2019-02-24T23:01:21.374Z,102698.38
2019-02-24T23:03:53.040Z,102693.34
2019-02-24T23:06:24.771Z,102695.13
2019-02-24T23:08:55.512Z,102694.00
2019-02-24T23:11:27.425Z,102685.58
2019-02-24T23:13:59.040Z,102685.58
2019-02-24T23:16:30.780Z,102689.59
2019-02-24T23:19:01.484Z,102690.22
2019-02-24T23:21:33.307Z,102686.20
2019-02-24T23:24:04.878Z,102681.24
2019-02-24T23:26:37.310Z,102675.42
2019-02-24T23:29:08.890Z,102679.30
2019-02-24T23:31:40.420Z,102683.09
2019-02-24T23:34:12.012Z,102679.21
2019-02-24T23:36:43.834Z,102676.99
2019-02-24T23:39:17.823Z,102674.91
2019-02-24T23:41:49.778Z,102668.09
2019-02-24T23:44:21.744Z,102675.23
2019-02-24T23:46:52.479Z,102673.52
2019-02-24T23:49:24.609Z,102668.41
2019-02-24T23:51:56.753Z,102650.56
2019-02-24T23:54:27.454Z,102650.56
2019-02-24T23:56:59.573Z,102661.55
2019-02-24T23:59:31.321Z,102650.42
